Latest Weather Observations for Gosford

IDN60901

Issued at 5:31 pm EST Wednesday 27 July 2016 (issued every 10 minutes, with the page automatically refreshed every 10 minutes)

About weather observations | Map of Sydney area stations | Latest observations for Sydney area | Other Formats
Station Details ID: 061425 Name: GOSFORD AWS Lat: -33.44 Lon: 151.36 Height: 7.0 m
Data from the previous 72 hours. | See also: Recent months at Gosford
Date/Time
EST
Temp
°C
App
Temp
°C
Dew
Point
°C
Rel
Hum
%
Delta-T
°C
Wind Press
QNH
hPa
Press
MSL
hPa
Rain since
9am
mm
Dir  Spd
km/h
Gust
km/h
Spd
kts
Gust
kts
27/05:30pm 15.7 10.5 3.8 45 5.5 W 20 30 11 16 - - 0.0
27/05:00pm 15.9 11.4 4.0 45 5.5 W 17 26 9 14 - - 0.0
27/04:30pm 16.8 11.6 3.8 42 6.0 W 20 37 11 20 - - 0.0
27/04:00pm 17.4 12.2 3.7 40 6.4 WSW 20 41 11 22 - - 0.0
27/03:30pm 17.9 11.9 3.4 38 6.7 W 24 39 13 21 - - 0.0
27/03:00pm 17.9 11.5 3.0 37 6.9 W 26 43 14 23 - - 0.0
27/02:30pm 18.1 11.2 2.8 36 7.0 W 28 50 15 27 - - 0.0
27/02:00pm 18.4 11.5 2.7 35 7.2 WNW 28 48 15 26 - - 0.0
27/01:30pm 18.1 10.2 2.4 35 7.2 W 33 54 18 29 - - 0.0
27/01:00pm 18.0 10.8 3.1 37 6.9 W 30 50 16 27 - - 0.0
27/12:31pm 17.8 11.2 4.4 41 6.4 W 28 54 15 29 - - 0.0
27/12:30pm 18.0 11.9 4.9 42 6.3 W 26 54 14 29 - - 0.0
27/12:00pm 17.8 11.1 5.7 45 5.9 WNW 30 48 16 26 - - 0.0
27/11:45am 17.5 10.8 5.4 45 5.8 WNW 30 50 16 27 - - 0.0
27/11:30am 17.5 10.9 6.1 47 5.6 WNW 30 41 16 22 - - 0.0
27/11:00am 17.0 9.7 5.6 47 5.5 WNW 33 56 18 30 - - 0.0
27/10:34am 16.7 10.8 5.9 49 5.2 NW 26 48 14 26 - - 0.0
27/10:30am 16.8 11.7 6.0 49 5.2 NW 22 37 12 20 - - 0.0
27/10:00am 15.9 10.5 6.3 53 4.7 WNW 24 43 13 23 - - 0.0
27/09:30am 15.2 10.5 6.2 55 4.3 WNW 20 41 11 22 - - 0.0
27/09:00am 14.6 9.9 6.2 57 4.0 NW 20 39 11 21 - - 0.0
27/08:30am 14.2 9.6 5.8 57 4.0 NW 19 35 10 19 - - 0.0
27/08:00am 13.6 9.7 5.3 57 3.9 NW 15 30 8 16 - - 0.0
27/07:30am 13.1 10.3 5.0 58 3.7 NW 9 19 5 10 - - 0.0
27/07:00am 12.9 10.1 5.1 59 3.6 WNW 9 17 5 9 - - 0.0
27/06:30am 12.8 9.6 5.2 60 3.5 NW 11 26 6 14 - - 0.0
27/06:00am 12.8 9.6 5.0 59 3.6 WNW 11 26 6 14 - - 0.0
27/05:30am 12.9 9.0 5.3 60 3.5 WNW 15 26 8 14 - - 0.0
27/05:00am 12.5 9.9 5.9 64 3.1 WNW 9 20 5 11 - - 0.0
27/04:30am 10.2 8.5 5.8 74 2.0 N 4 7 2 4 - - 0.0
27/04:00am 10.3 8.5 5.3 71 2.3 NE 4 7 2 4 - - 0.0
27/03:30am 12.1 10.3 5.5 64 3.1 NNW 4 7 2 4 - - 0.0
27/03:00am 12.5 10.3 5.4 62 3.3 N 6 11 3 6 - - 0.0
27/02:30am 12.4 10.0 5.1 61 3.4 N 7 13 4 7 - - 0.0
27/02:00am 11.9 10.1 5.3 64 3.0 N 4 9 2 5 - - 0.0
27/01:30am 12.6 9.9 5.5 62 3.3 N 9 15 5 8 - - 0.0
27/01:00am 9.3 7.5 5.5 77 1.7 NNW 4 9 2 5 - - 0.0
27/12:30am 8.4 6.6 5.3 81 1.4 NNW 4 6 2 3 - - 0.0
27/12:00am 9.3 8.0 5.9 79 1.6 N 2 6 1 3 - - 0.0
 
Date/Time
EST
Temp
°C
App
Temp
°C
Dew
Point
°C
Rel
Hum
%
Delta-T
°C
Wind Press
QNH
hPa
Press
MSL
hPa
Rain since
9am
mm
Dir  Spd
km/h
Gust
km/h
Spd
kts
Gust
kts
26/11:30pm 10.4 8.2 5.4 71 2.3 N 6 7 3 4 - - 0.0
26/11:00pm 11.9 10.1 5.5 65 3.0 NNW 4 9 2 5 - - 0.0
26/10:30pm 11.0 10.2 6.7 75 2.0 CALM 0 4 0 2 - - 0.0
26/10:00pm 11.5 10.8 6.8 73 2.2 CALM 0 4 0 2 - - 0.0
26/09:30pm 12.9 11.1 5.3 60 3.5 N 4 6 2 3 - - 0.0
26/09:00pm 12.8 11.1 5.7 62 3.3 NNW 4 7 2 4 - - 0.0
26/08:30pm 11.3 9.1 5.4 67 2.7 NNW 6 7 3 4 - - 0.0
26/08:00pm 14.2 10.5 4.5 52 4.5 NW 13 17 7 9 - - 0.0
26/07:30pm 13.1 11.1 4.5 56 3.9 NW 4 9 2 5 - - 0.0
26/07:00pm 14.5 12.0 4.8 52 4.5 NNW 7 17 4 9 - - 0.0
26/06:30pm 12.5 10.4 5.7 63 3.2 NW 6 7 3 4 - - 0.0
26/06:00pm 13.8 11.7 5.7 58 3.8 NW 6 9 3 5 - - 0.0
26/05:30pm 13.6 11.7 6.5 62 3.4 NW 6 6 3 3 - - 0.0
26/05:00pm 16.7 14.4 4.7 45 5.7 W 6 9 3 5 - - 0.0
26/04:30pm 18.3 14.9 3.8 38 6.8 WNW 11 24 6 13 - - 0.0
26/04:00pm 18.7 15.0 4.5 39 6.8 WNW 13 22 7 12 - - 0.0
26/03:30pm 18.9 14.8 4.3 38 7.0 WNW 15 26 8 14 - - 0.0
26/03:00pm 18.6 15.8 5.1 41 6.5 NNW 9 17 5 9 - - 0.0
26/02:30pm 19.3 17.6 5.7 41 6.7 NNW 4 7 2 4 - - 0.0
26/02:00pm 18.6 15.9 5.5 42 6.4 NNW 9 17 5 9 - - 0.0
26/01:30pm 18.1 14.9 5.0 42 6.3 NNW 11 24 6 13 - - 0.0
26/01:00pm 17.8 15.1 5.4 44 6.0 WNW 9 20 5 11 - - 0.0
26/12:30pm 17.4 15.2 6.0 47 5.6 W 7 13 4 7 - - 0.0
26/12:00pm 17.1 13.7 6.0 48 5.4 WNW 13 22 7 12 - - 0.0
26/11:30am 16.9 13.9 6.1 49 5.3 NNW 11 20 6 11 - - 0.0
26/11:00am 16.4 13.4 6.0 50 5.0 NNW 11 22 6 12 - - 0.0
26/10:30am 15.7 12.7 5.9 52 4.7 NW 11 19 6 10 - - 0.0
26/10:00am 15.2 13.0 6.2 55 4.3 N 7 13 4 7 - - 0.0
26/09:30am 13.9 11.2 5.8 58 3.8 N 9 17 5 9 - - 0.0
26/09:00am 13.3 10.6 5.7 60 3.6 NNE 9 19 5 10 - - 0.0
26/08:30am 12.3 9.0 4.8 60 3.4 N 11 17 6 9 - - 0.0
26/08:00am 11.8 9.2 4.1 59 3.5 N 7 17 4 9 - - 0.0
26/07:30am 10.6 7.2 3.9 63 3.0 N 11 17 6 9 - - 0.0
26/07:00am 9.5 7.1 4.3 70 2.3 N 6 11 3 6 - - 0.0
26/06:30am 8.6 6.5 3.8 72 2.1 NNE 4 6 2 3 - - 0.0
26/06:00am 9.0 6.4 3.4 68 2.4 NE 6 7 3 4 - - 0.0
26/05:30am 9.5 6.9 3.3 65 2.7 NNE 6 13 3 7 - - 0.0
26/05:00am 10.1 7.5 3.2 62 3.0 NNE 6 9 3 5 - - 0.0
26/04:30am 9.9 7.1 3.4 64 2.8 N 7 13 4 7 - - 0.0
26/04:00am 10.3 7.3 4.0 65 2.8 NNE 9 17 5 9 - - 0.0
26/03:30am 8.0 5.6 4.2 77 1.7 N 6 9 3 5 - - 0.0
26/03:00am 8.6 6.1 3.8 72 2.1 NNE 6 7 3 4 - - 0.0
26/02:30am 9.3 6.8 3.9 69 2.4 N 6 11 3 6 - - 0.0
26/02:00am 9.0 6.9 3.8 70 2.3 NNE 4 7 2 4 - - 0.0
26/01:30am 9.3 6.8 3.7 68 2.4 NNE 6 9 3 5 - - 0.0
26/01:00am 9.8 7.3 3.8 66 2.6 NNE 6 9 3 5 - - 0.0
26/12:30am 9.5 7.4 3.7 67 2.5 NNW 4 7 2 4 - - 0.0
26/12:00am 11.7 8.2 3.7 58 3.6 NW 11 22 6 12 - - 0.0
 
Date/Time
EST
Temp
°C
App
Temp
°C
Dew
Point
°C
Rel
Hum
%
Delta-T
°C
Wind Press
QNH
hPa
Press
MSL
hPa
Rain since
9am
mm
Dir  Spd
km/h
Gust
km/h
Spd
kts
Gust
kts
25/11:30pm 11.5 8.4 3.8 59 3.4 NNW 9 17 5 9 - - 0.0
25/11:00pm 11.5 8.8 3.8 59 3.4 NW 7 15 4 8 - - 0.0
25/10:30pm 11.5 8.8 3.5 58 3.5 NNW 7 15 4 8 - - 0.0
25/10:00pm 11.5 8.4 3.5 58 3.5 NW 9 17 5 9 - - 0.0
25/09:30pm 12.0 8.5 3.5 56 3.8 NW 11 19 6 10 - - 0.0
25/09:00pm 11.8 9.1 3.6 57 3.6 NNW 7 15 4 8 - - 0.0
25/08:30pm 12.5 9.0 3.5 54 4.0 NNW 11 20 6 11 - - 0.0
25/08:00pm 12.5 9.4 3.7 55 3.9 N 9 17 5 9 - - 0.0
25/07:30pm 12.8 10.3 3.5 53 4.2 NNW 6 11 3 6 - - 0.0
25/07:00pm 13.2 10.4 3.3 51 4.4 N 7 13 4 7 - - 0.0
25/06:30pm 13.8 10.2 3.0 48 4.8 NW 11 20 6 11 - - 0.0
25/06:00pm 13.6 11.4 3.1 49 4.7 NNW 4 11 2 6 - - 0.0
25/05:30pm 13.9 11.6 2.8 47 4.9 N 4 11 2 6 - - 0.0
25/05:00pm 15.0 11.7 2.2 42 5.7 NW 9 17 5 9 - - 0.0
25/04:30pm 15.9 11.4 2.3 40 6.1 WNW 15 24 8 13 - - 0.0
25/04:00pm 16.5 12.4 2.5 39 6.3 NW 13 24 7 13 - - 0.0
25/03:30pm 16.9 12.4 2.1 37 6.6 NW 15 28 8 15 - - 0.0
25/03:00pm 17.3 11.7 1.3 34 7.1 WNW 20 37 11 20 - - 0.0
25/02:30pm 17.3 12.8 2.1 36 6.8 WNW 15 30 8 16 - - 0.0
25/02:00pm 17.0 11.1 1.8 36 6.8 WNW 22 37 12 20 - - 0.0
25/01:30pm 17.1 12.4 3.1 39 6.4 WNW 17 30 9 16 - - 0.0
25/01:00pm 16.8 11.0 2.4 38 6.5 WNW 22 39 12 21 - - 0.0
25/12:30pm 16.6 10.9 2.6 39 6.3 W 22 33 12 18 - - 0.0
25/12:00pm 16.1 10.7 2.2 39 6.2 WNW 20 35 11 19 - - 0.0
25/11:43am 15.6 8.2 2.1 40 6.0 WNW 30 48 16 26 - - 0.0
25/11:30am 15.6 9.1 2.7 42 5.8 WNW 26 43 14 23 - - 0.0
25/11:16am 15.2 8.4 3.0 44 5.5 WNW 28 54 15 29 - - 0.0
25/11:00am 15.1 10.0 3.9 47 5.1 WNW 20 37 11 20 - - 0.0
25/10:30am 14.4 8.4 3.5 48 4.9 WNW 24 35 13 19 - - 0.0
25/10:00am 14.0 9.4 3.8 50 4.6 NW 17 30 9 16 - - 0.0
25/09:30am 13.4 9.5 3.5 51 4.4 WNW 13 24 7 13 - - 0.0
25/09:00am 12.7 8.4 3.1 52 4.2 WNW 15 33 8 18 - - 0.0
25/08:30am 12.1 8.2 3.3 55 3.9 NW 13 22 7 12 - - 0.0
25/08:00am 11.2 8.4 3.3 58 3.5 NW 7 13 4 7 - - 0.0
25/07:30am 10.2 7.0 3.3 62 3.0 NNW 9 17 5 9 - - 0.0
25/07:00am 9.9 6.3 3.2 63 2.9 NNW 11 17 6 9 - - 0.0
25/06:30am 10.0 6.8 3.1 62 3.0 NW 9 13 5 7 - - 0.0
25/06:00am 10.1 6.6 3.4 63 2.9 WNW 11 22 6 12 - - 0.0
25/05:30am 10.1 7.6 4.0 66 2.7 NW 6 13 3 7 - - 0.0
25/05:00am 10.6 6.9 4.5 66 2.7 NW 13 28 7 15 - - 0.0
25/04:30am 10.4 6.0 4.5 67 2.6 NNW 17 33 9 18 - - 0.0
25/04:00am 10.2 6.5 4.6 68 2.5 NNW 13 22 7 12 - - 0.0
25/03:30am 10.1 6.0 4.5 68 2.5 NNW 15 28 8 15 - - 0.0
25/03:00am 10.2 6.1 4.6 68 2.5 NNW 15 28 8 15 - - 0.0
25/02:30am 9.8 6.5 4.6 70 2.3 NNW 11 19 6 10 - - 0.0
25/02:00am 6.0 4.0 4.3 89 0.7 SW 4 7 2 4 - - 0.0
25/01:30am 4.3 2.9 3.3 93 0.4 CALM 0 2 0 1 - - 0.0
25/01:00am 4.9 3.5 3.7 92 0.5 CALM 0 0 0 0 - - 0.0
25/12:30am 4.4 2.5 3.1 91 0.5 NNW 2 6 1 3 - - 0.0
25/12:00am 4.3 2.8 2.8 90 0.6 CALM 0 6 0 3 - - 0.0
 
Date/Time
EST
Temp
°C
App
Temp
°C
Dew
Point
°C
Rel
Hum
%
Delta-T
°C
Wind Press
QNH
hPa
Press
MSL
hPa
Rain since
9am
mm
Dir  Spd
km/h
Gust
km/h
Spd
kts
Gust
kts
24/11:30pm 5.0 3.5 3.0 87 0.8 CALM 0 4 0 2 - - 0.0
24/11:00pm 4.8 2.9 2.7 86 0.9 NNE 2 7 1 4 - - 0.0
24/10:30pm 6.2 4.3 2.7 78 1.4 N 2 4 1 2 - - 0.0
24/10:00pm 7.7 4.9 2.2 68 2.3 N 6 9 3 5 - - 0.0
24/09:30pm 8.6 5.6 1.7 62 2.8 N 7 13 4 7 - - 0.0
24/09:00pm 8.8 5.4 1.9 62 2.9 N 9 15 5 8 - - 0.0
24/08:30pm 9.3 5.5 1.9 60 3.1 N 11 20 6 11 - - 0.0
24/08:00pm 9.4 5.3 2.0 60 3.1 N 13 20 7 11 - - 0.0
24/07:30pm 9.4 6.0 2.0 60 3.1 N 9 15 5 8 - - 0.0
24/07:00pm 9.3 5.2 2.2 61 3.0 N 13 20 7 11 - - 0.0
24/06:30pm 8.8 5.9 2.6 65 2.6 NNW 7 11 4 6 - - 0.0
24/06:00pm 9.1 5.8 2.7 64 2.7 N 9 15 5 8 - - 0.0

Latest Capital City Observations: Canberra | Sydney | Melbourne | Brisbane | Adelaide | Perth | Hobart | Darwin

Other Formats:

Comma delimited format used in spreadsheet applications
http://www.bom.gov.au/fwo/IDN60901/IDN60901.94782.axf

JavaScript Object Notation format (JSON) in row-major order
http://www.bom.gov.au/fwo/IDN60901/IDN60901.94782.json